This is the latest recevied weather packets stored in our database for station/object N0NPO. If no packets are shown the sender has not sent any weather packets the latest 10 day(s).
| Time | Temp. | Humidity | Pressure | Rain* | Wind** | Luminosity | Snow |
|---|---|---|---|---|---|---|---|
| 1777685967 | 11.67° C | 1% | 1023 hPa | 0 mm | - | 4 W/m² | - |
| 1777685662 | 11.67° C | 1% | 1023.1 hPa | 0 mm | - | 6 W/m² | - |
| 1777685359 | 11.67° C | 1% | 1023 hPa | 0 mm | - | 11 W/m² | - |
| 1777685057 | 12.22° C | 1% | 1023.1 hPa | 0 mm | - | 13 W/m² | - |
| 1777684754 | 12.78° C | 1% | 1023 hPa | 0 mm | - | 17 W/m² | - |
| 1777684450 | 12.78° C | 1% | 1022.8 hPa | 0 mm | - | 21 W/m² | - |
| 1777684148 | 12.78° C | 1% | 1023 hPa | 0 mm | - | 24 W/m² | - |
| 1777683844 | 13.33° C | 1% | 1023.1 hPa | 0 mm | - | 28 W/m² | - |
| 1777683541 | 13.33° C | 1% | 1023 hPa | 0 mm | - | 33 W/m² | - |
| 1777683239 | 13.33° C | 1% | 1022.8 hPa | 0 mm | - | 46 W/m² | - |
| 1777682936 | 13.89° C | 1% | 1022.9 hPa | 0 mm | - | 62 W/m² | - |
| 1777682632 | 13.89° C | 1% | 1022.8 hPa | 0 mm | - | 71 W/m² | - |
| 1777682330 | 13.89° C | 1% | 1022.8 hPa | 0 mm | - | 81 W/m² | - |
| 1777682026 | 15.56° C | 1% | 1022.9 hPa | 0 mm | - | 92 W/m² | - |
| 1777681723 | 15.56° C | 1% | 1022.7 hPa | 0 mm | - | 109 W/m² | - |
| 1777681420 | 15° C | 1% | 1022.5 hPa | 0 mm | - | 121 W/m² | - |
| 1777681117 | 15° C | 1% | 1022.7 hPa | 0 mm | - | 135 W/m² | - |
| 1777680815 | 15° C | 1% | 1022.5 hPa | 0 mm | - | 122 W/m² | - |
| 1777680512 | 15.56° C | 1% | 1022.8 hPa | 0 mm | - | 153 W/m² | - |
| 1777680210 | 15° C | 1% | 1022.7 hPa | 0 mm | - | 161 W/m² | - |
| 1777679906 | 15° C | 1% | 1022.8 hPa | 0 mm | - | 187 W/m² | - |
| 1777679602 | 14.44° C | 1% | 1022.7 hPa | 0 mm | - | 201 W/m² | - |
| 1777679297 | 15° C | 1% | 1022.7 hPa | 0 mm | - | 188 W/m² | - |
| 1777678995 | 15.56° C | 1% | 1023 hPa | 0 mm | - | 234 W/m² | - |
| 1777678693 | 15° C | 1% | 1022.8 hPa | 0 mm | - | 228 W/m² | - |
* Rain latest hour (hover to see other rain measurements)
** Current wind speed in m/s (hover to see current wind gust speed)